KIAB/IAB METAR and TAF weather

Enter ICAO airport designator
Station Type Date Time Source
KIAB METAR 2022/06/25 21:56 UTC NOAA

KIAB 252156Z 02020G26KT 10SM CLR 33/21 A2998 RMK AO2A PK WND 36029/55 SLP138 T03310212 $


Station Type Date Time Source
KIAB Decoded METAR 2022/06/25 21:56 UTC NOAA

McConnell Air Force Base, KS, United States (KIAB) 37-37N 097-16W
Jun 25, 2022 - 05:56 PM EDT / 2022.06.25 2156 UTC
Wind: from the NNE (020 degrees) at 23 MPH (20 KT) gusting to 30 MPH (26 KT):0
Visibility: 10 mile(s):0
Sky conditions: clear
Temperature: 91.6 F (33.1 C)
Heat index: 97.2 F (36.2 C):1
Dew Point: 70.2 F (21.2 C)
Relative Humidity: 49%
Pressure (altimeter): 29.98 in. Hg (1015 hPa)
ob: KIAB 252156Z 02020G26KT 10SM CLR 33/21 A2998 RMK AO2A PK WND 36029/55 SLP138 T03310212
cycle: 22

Station Type Date Time Source
KIAB TAF 2022/06/25 11:03 UTC NOAA

TAF TAF
AMD KIAB 251101Z 2511/2616 19010G15KT 9999 SKC WS020/20055KT QNH2982INS
TEMPO 2510/2513 9000 -SHRA VCTS SCT050CB BKN100
BECMG 2512/2513 20010G20KT 9999 FEW050 SCT100 BKN150 QNH2985INS
TEMPO 2513/2518 21025G35KT
BECMG 2519/2520 31010G15KT 9999 VCSH SCT050 BKN080 QNH2989INS
BECMG 2520/2521 34015G25KT 8000 -SHRA VCTS SCT020 BKN050CB QNH2980INS
TEMPO 2523/2606 02015G30KT 4800 -TSRA SCT008 BKN025CB
BECMG 2609/2610 03020G30KT 3200 -TSRA BKN008CB OVC050 QNH2995INS
BECMG 2614/2615 03015G25KT 9999 NSW SCT025 BKN080 QNH3002INS TX36/2521Z TN25/2511Z LAST NO
AMDS AFT 2511 NEXT 2710

Example: see airport list